Horse Creek, Wyoming
Current Conditions -  °F | °C
As of 7:56 AM on Wednesday 22 Oct 2014 (Local Time) from KFEW Reporting Station
Few Clouds Few Clouds  
Wind Chill: 41°   Ceiling: Unl
Heat Index: 45°   Visibility: 10mi
Dew Point: 36°   Wind: 8mph
Humidity: 71%   Direction: 280°W
Pressure: 30.06"   Gusts: NA
Location:  41.41°N, 105.18°W
Report Text: KFEW 221356Z AUTO 28007KT 10SM FEW240 07/02 A3006 RMK AO2 SLP139 T00720022 $
Loading
Personal Weather Stations






























Interactive Weather Map
Tropical Storm Tracking
New forecast layout! Learn more

10-Day Weather Forecast

Advertisements
Track Severe Weather on mobile